Time;durP1;ratioP1;P1;durP2;ratioP2;P2;SDS_P1;SDS_P2;PMS_P1;PMS_P2;Temp;Humidity;BMP_temperature;BMP_pressure;BME280_temperature;BME280_humidity;BME280_pressure;Samples;Min_cycle;Max_cycle;Signal;HPM_P1;HPM_P2
2021/08/17 00:01:20;;;;;;;2.50;1.98;;;25.10;39.20;;;;;;5024967;28;20060;-71
2021/08/17 00:03:46;;;;;;;3.33;1.83;;;25.10;38.40;;;;;;5006089;28;20042;-71
2021/08/17 00:06:12;;;;;;;3.17;2.08;;;25.10;35.60;;;;;;5007600;28;20045;-71
2021/08/17 00:08:37;;;;;;;3.35;2.25;;;25.10;39.50;;;;;;5020587;28;20044;-71
2021/08/17 00:11:03;;;;;;;2.50;2.00;;;25.10;39.70;;;;;;5016233;28;20046;-71
2021/08/17 00:13:29;;;;;;;3.17;2.10;;;24.90;39.40;;;;;;5024345;28;20056;-71
2021/08/17 00:15:54;;;;;;;2.90;2.05;;;25.00;37.70;;;;;;5004041;28;20399;-70
2021/08/17 00:18:20;;;;;;;2.58;1.90;;;24.90;39.80;;;;;;5028022;28;20095;-71
2021/08/17 00:20:46;;;;;;;3.42;2.05;;;24.90;37.50;;;;;;5007449;28;20477;-71
2021/08/17 00:23:11;;;;;;;3.58;2.53;;;24.90;40.60;;;;;;5013164;28;20033;-71
2021/08/17 00:25:42;;;;;;;3.95;2.00;;;24.90;39.70;;;;;;5027345;28;20046;-71
2021/08/17 00:28:08;;;;;;;3.00;1.92;;;24.90;42.20;;;;;;5018014;28;20041;-70
2021/08/17 00:30:33;;;;;;;3.25;2.08;;;24.90;42.40;;;;;;5008081;28;20391;-71
2021/08/17 00:32:59;;;;;;;2.55;1.90;;;24.80;42.00;;;;;;5011949;28;20128;-71
2021/08/17 00:35:25;;;;;;;3.38;1.85;;;24.80;42.30;;;;;;5028670;28;20619;-71
2021/08/17 00:37:52;;;;;;;2.25;1.90;;;24.80;43.70;;;;;;5024777;28;20458;-70
2021/08/17 00:40:18;;;;;;;2.67;2.20;;;24.80;43.70;;;;;;5031186;28;20496;-69
2021/08/17 00:42:45;;;;;;;2.85;1.98;;;24.80;44.00;;;;;;5025752;28;20039;-71
2021/08/17 00:45:13;;;;;;;3.78;2.20;;;24.70;43.60;;;;;;5026963;28;20064;-71
2021/08/17 00:47:39;;;;;;;3.67;1.60;;;24.80;44.30;;;;;;5021133;28;20040;-70
2021/08/17 00:50:05;;;;;;;2.70;1.70;;;24.70;44.10;;;;;;5023058;28;20173;-70
2021/08/17 00:52:31;;;;;;;3.90;2.15;;;24.60;44.50;;;;;;5020666;28;20149;-70
2021/08/17 00:54:57;;;;;;;3.45;1.92;;;24.60;45.40;;;;;;5027018;28;20131;-70
2021/08/17 00:57:22;;;;;;;3.15;2.13;;;24.60;44.50;;;;;;5008483;28;20392;-71
2021/08/17 00:59:48;;;;;;;2.78;1.98;;;24.70;36.70;;;;;;5019794;28;20073;-69
2021/08/17 01:02:14;;;;;;;2.80;1.85;;;24.70;40.80;;;;;;5022147;28;20054;-70
2021/08/17 01:04:40;;;;;;;2.97;2.25;;;24.70;40.90;;;;;;5005427;28;20033;-70
2021/08/17 01:07:07;;;;;;;2.45;1.90;;;24.70;42.00;;;;;;5007946;28;20064;-69
2021/08/17 01:09:32;;;;;;;3.63;2.20;;;24.70;42.50;;;;;;5007982;28;20109;-70
2021/08/17 01:12:03;;;;;;;2.70;2.15;;;24.70;42.00;;;;;;5010575;28;20144;-69
2021/08/17 01:14:29;;;;;;;2.45;1.88;;;24.70;40.60;;;;;;5009950;28;20037;-70
2021/08/17 01:16:55;;;;;;;2.05;1.60;;;24.70;41.20;;;;;;5014274;28;20132;-69
2021/08/17 01:19:21;;;;;;;2.25;1.80;;;24.70;40.00;;;;;;5021731;28;20627;-69
2021/08/17 01:21:48;;;;;;;2.17;1.98;;;24.70;40.20;;;;;;5008572;28;20080;-70
2021/08/17 01:24:15;;;;;;;3.85;1.70;;;24.70;32.60;;;;;;5023582;28;20072;-70
2021/08/17 01:26:40;;;;;;;3.17;2.10;;;24.80;37.60;;;;;;5027050;28;20041;-70
2021/08/17 01:29:10;;;;;;;3.03;2.08;;;24.70;36.50;;;;;;5024464;28;20056;-70
2021/08/17 01:31:37;;;;;;;1.70;1.60;;;24.70;37.30;;;;;;5023844;28;20061;-70
2021/08/17 01:34:03;;;;;;;2.42;1.83;;;24.60;32.90;;;;;;5002508;28;20096;-70
2021/08/17 01:36:28;;;;;;;2.83;1.73;;;24.60;35.20;;;;;;5016128;28;20048;-69
2021/08/17 01:38:54;;;;;;;2.10;1.90;;;24.60;33.50;;;;;;5026889;28;20037;-69
2021/08/17 01:41:20;;;;;;;3.15;2.22;;;24.70;36.90;;;;;;5017360;28;20472;-69
2021/08/17 01:43:47;;;;;;;3.88;1.60;;;24.70;37.50;;;;;;5022453;28;20034;-70
2021/08/17 01:46:13;;;;;;;2.63;2.00;;;24.70;36.00;;;;;;5000692;28;20076;-70
2021/08/17 01:48:39;;;;;;;2.10;1.70;;;24.70;36.80;;;;;;5010132;28;20091;-70
2021/08/17 01:51:05;;;;;;;3.38;1.60;;;24.70;36.40;;;;;;5002241;28;20548;-70
2021/08/17 01:53:33;;;;;;;2.83;1.60;;;24.60;38.10;;;;;;5012758;28;20050;-70
2021/08/17 01:56:23;;;;;;;2.83;1.70;;;24.60;37.70;;;;;;5007973;28;20034;-69
2021/08/17 01:58:48;;;;;;;3.08;1.90;;;24.60;36.00;;;;;;5020969;28;20042;-68
2021/08/17 02:01:14;;;;;;;2.38;1.60;;;24.60;37.50;;;;;;5021023;28;20045;-69
2021/08/17 02:03:39;;;;;;;1.42;1.33;;;24.60;36.40;;;;;;5012988;28;20038;-70
2021/08/17 02:06:09;;;;;;;2.00;1.70;;;24.60;37.70;;;;;;5018973;28;20131;-69
2021/08/17 02:08:35;;;;;;;2.90;1.58;;;24.60;37.40;;;;;;5022296;28;20391;-69
2021/08/17 02:11:00;;;;;;;1.80;1.52;;;24.50;34.40;;;;;;5021472;28;20041;-69
2021/08/17 02:13:28;;;;;;;2.63;1.65;;;24.50;35.50;;;;;;5028134;28;20507;-69
2021/08/17 02:15:55;;;;;;;1.75;1.65;;;24.60;37.30;;;;;;5009851;28;20168;-69
2021/08/17 02:18:21;;;;;;;2.85;1.65;;;24.50;37.30;;;;;;5009147;28;20050;-69
2021/08/17 02:20:47;;;;;;;3.03;1.67;;;24.50;37.40;;;;;;5008466;28;20034;-70
2021/08/17 02:23:13;;;;;;;1.85;1.35;;;24.50;38.00;;;;;;5015145;28;20048;-69
2021/08/17 02:25:39;;;;;;;1.58;1.30;;;24.50;38.50;;;;;;5007426;28;20054;-69
2021/08/17 02:28:04;;;;;;;2.17;1.35;;;24.50;39.70;;;;;;5010354;28;20072;-69
2021/08/17 02:30:30;;;;;;;2.03;1.48;;;24.50;39.20;;;;;;5007326;28;20041;-69
2021/08/17 02:32:56;;;;;;;1.60;1.23;;;24.40;36.80;;;;;;5009981;28;20469;-69
2021/08/17 02:35:21;;;;;;;2.28;1.40;;;24.50;37.00;;;;;;5019749;28;20428;-69
2021/08/17 02:37:47;;;;;;;1.45;0.98;;;24.60;37.50;;;;;;5012285;28;20120;-69
2021/08/17 02:40:13;;;;;;;1.92;1.52;;;24.60;38.30;;;;;;5017054;28;20053;-69
2021/08/17 02:42:39;;;;;;;3.78;1.27;;;24.50;38.90;;;;;;5005949;28;20112;-69
2021/08/17 02:45:06;;;;;;;3.30;1.42;;;24.60;37.60;;;;;;5020543;28;20060;-69
2021/08/17 02:47:32;;;;;;;2.13;1.10;;;24.60;37.70;;;;;;5003683;28;20503;-69
2021/08/17 02:49:57;;;;;;;1.35;1.20;;;24.50;34.60;;;;;;5025435;28;20133;-69
2021/08/17 02:52:23;;;;;;;3.33;1.35;;;24.50;37.60;;;;;;5021457;28;20128;-68
2021/08/17 02:54:50;;;;;;;1.80;1.40;;;24.50;35.40;;;;;;5028903;28;20059;-68
2021/08/17 02:57:18;;;;;;;2.28;1.15;;;24.50;36.80;;;;;;5025259;28;20049;-69
2021/08/17 02:59:43;;;;;;;1.52;1.23;;;24.50;38.20;;;;;;5005667;28;20041;-69
2021/08/17 03:02:09;;;;;;;1.48;1.35;;;24.50;38.80;;;;;;5017095;28;20048;-69
2021/08/17 03:04:36;;;;;;;1.30;1.20;;;24.50;39.40;;;;;;5028993;28;20032;-69
2021/08/17 03:07:02;;;;;;;1.40;1.00;;;24.50;38.20;;;;;;5029368;28;20053;-69
2021/08/17 03:09:28;;;;;;;2.95;1.35;;;24.50;39.50;;;;;;5028227;28;20045;-68
2021/08/17 03:11:54;;;;;;;1.30;1.20;;;24.40;39.90;;;;;;5028178;28;20037;-69
2021/08/17 03:14:19;;;;;;;2.45;1.30;;;24.40;40.50;;;;;;5010671;28;20037;-68
2021/08/17 03:16:45;;;;;;;2.17;1.40;;;24.40;40.60;;;;;;5029720;28;20072;-69
2021/08/17 03:19:11;;;;;;;1.20;1.10;;;24.40;42.00;;;;;;5028470;28;20084;-69
2021/08/17 03:21:36;;;;;;;1.30;1.20;;;24.40;42.60;;;;;;5025523;28;20049;-68
2021/08/17 03:24:02;;;;;;;1.33;1.15;;;24.30;41.00;;;;;;5008408;28;20038;-68
2021/08/17 03:26:28;;;;;;;1.73;1.10;;;24.30;41.60;;;;;;5016333;28;20065;-69
2021/08/17 03:28:53;;;;;;;2.42;2.00;;;24.30;40.90;;;;;;5025359;28;20034;-68
2021/08/17 03:31:19;;;;;;;2.08;1.17;;;24.30;42.90;;;;;;5010866;28;20044;-68
2021/08/17 03:33:45;;;;;;;2.10;1.55;;;24.30;43.00;;;;;;5024829;28;20410;-69
2021/08/17 03:36:11;;;;;;;1.30;1.02;;;24.30;39.60;;;;;;5030196;28;20045;-69
2021/08/17 03:38:37;;;;;;;1.27;1.17;;;24.30;42.90;;;;;;5026413;28;20132;-69
2021/08/17 03:41:03;;;;;;;1.15;0.90;;;24.40;41.80;;;;;;5025301;28;20507;-68
2021/08/17 03:43:29;;;;;;;1.98;1.20;;;24.40;39.40;;;;;;5027636;28;20102;-68
2021/08/17 03:45:55;;;;;;;1.63;1.35;;;24.50;42.70;;;;;;5023169;28;20037;-68
2021/08/17 03:48:21;;;;;;;1.40;1.23;;;24.40;41.80;;;;;;5003306;28;20033;-68
2021/08/17 03:50:46;;;;;;;2.05;1.30;;;24.40;42.10;;;;;;5026039;28;20065;-69
2021/08/17 03:53:12;;;;;;;1.63;1.13;;;24.40;37.60;;;;;;5030789;28;20084;-69
2021/08/17 03:55:38;;;;;;;1.30;1.20;;;24.40;41.50;;;;;;4996300;28;20439;-69
2021/08/17 03:58:04;;;;;;;1.90;1.70;;;24.40;41.40;;;;;;5009652;28;20057;-69
2021/08/17 04:00:32;;;;;;;2.38;1.20;;;24.30;40.90;;;;;;5025296;28;20064;-69
2021/08/17 04:02:59;;;;;;;2.40;1.23;;;24.40;41.30;;;;;;5013465;28;20038;-68
2021/08/17 04:05:25;;;;;;;1.63;1.40;;;24.40;37.20;;;;;;5013454;28;20042;-68
2021/08/17 04:07:51;;;;;;;1.67;1.33;;;24.30;38.70;;;;;;5007642;28;20033;-68
2021/08/17 04:10:16;;;;;;;3.20;1.58;;;24.30;37.80;;;;;;5008678;28;20195;-69
2021/08/17 04:12:42;;;;;;;1.75;1.10;;;24.40;40.60;;;;;;5021897;28;20041;-69
2021/08/17 04:15:09;;;;;;;1.98;1.50;;;24.30;40.00;;;;;;5020337;28;20053;-69
2021/08/17 04:17:35;;;;;;;2.13;1.70;;;24.30;42.00;;;;;;5025653;28;20073;-69
2021/08/17 04:20:02;;;;;;;2.15;1.75;;;24.30;43.20;;;;;;5011570;28;20048;-69
2021/08/17 04:22:27;;;;;;;2.58;1.40;;;24.30;43.00;;;;;;5022944;28;20124;-69
2021/08/17 04:24:53;;;;;;;2.20;1.75;;;24.30;43.30;;;;;;5029008;28;20148;-68
2021/08/17 04:27:18;;;;;;;1.95;1.52;;;24.30;43.40;;;;;;5021040;28;20073;-66
2021/08/17 04:29:44;;;;;;;3.30;1.88;;;24.20;44.10;;;;;;5029643;28;20111;-69
2021/08/17 04:32:11;;;;;;;2.35;1.65;;;24.10;43.10;;;;;;5007680;28;20037;-68
2021/08/17 04:34:37;;;;;;;3.78;2.22;;;24.10;41.20;;;;;;5028936;28;20071;-69
2021/08/17 04:37:03;;;;;;;2.75;1.67;;;24.10;44.70;;;;;;5023813;28;20126;-68
2021/08/17 04:39:29;;;;;;;2.60;1.90;;;24.10;44.80;;;;;;5027114;28;20033;-68
2021/08/17 04:41:55;;;;;;;2.58;1.77;;;24.00;45.40;;;;;;5022630;28;20033;-68
2021/08/17 04:44:21;;;;;;;2.72;1.77;;;24.00;45.40;;;;;;5026549;28;20124;-68
2021/08/17 04:46:46;;;;;;;1.88;1.63;;;24.00;44.10;;;;;;5024135;28;20116;-69
2021/08/17 04:49:12;;;;;;;2.20;1.50;;;24.00;42.10;;;;;;5022372;28;20065;-68
2021/08/17 04:51:37;;;;;;;2.63;1.70;;;24.00;44.70;;;;;;5022150;28;22133;-69
2021/08/17 04:54:03;;;;;;;2.80;1.48;;;24.00;43.60;;;;;;5027573;28;20652;-69
2021/08/17 04:56:28;;;;;;;3.50;1.60;;;24.10;42.10;;;;;;5008806;28;20046;-68
2021/08/17 04:58:54;;;;;;;2.40;1.30;;;24.10;44.50;;;;;;5024239;28;20041;-68
2021/08/17 05:01:20;;;;;;;1.88;1.52;;;24.10;45.10;;;;;;5015143;28;20048;-68
2021/08/17 05:03:45;;;;;;;1.58;1.40;;;24.00;42.60;;;;;;5002740;28;20038;-68
2021/08/17 05:06:11;;;;;;;2.08;1.30;;;24.10;44.50;;;;;;5004820;28;20037;-69
2021/08/17 05:08:38;;;;;;;2.58;1.60;;;24.10;44.80;;;;;;5019103;28;20514;-68
2021/08/17 05:11:04;;;;;;;2.85;1.45;;;24.10;45.10;;;;;;5018787;28;20128;-68
2021/08/17 05:13:29;;;;;;;1.98;1.35;;;24.10;44.30;;;;;;5010958;28;20120;-69
2021/08/17 05:15:55;;;;;;;2.85;1.33;;;24.10;43.70;;;;;;5014223;28;20034;-68
2021/08/17 05:18:21;;;;;;;1.73;1.35;;;24.20;43.00;;;;;;5014119;28;20056;-68
2021/08/17 05:20:46;;;;;;;4.45;1.50;;;24.10;44.10;;;;;;5024083;28;20092;-69
2021/08/17 05:23:12;;;;;;;1.50;1.25;;;24.10;43.40;;;;;;5010555;28;20052;-69
2021/08/17 05:25:37;;;;;;;1.27;1.15;;;24.20;44.80;;;;;;5024108;28;20036;-68
2021/08/17 05:28:03;;;;;;;2.92;1.38;;;24.20;44.90;;;;;;5022671;28;20038;-69
2021/08/17 05:30:29;;;;;;;3.08;1.90;;;24.30;45.20;;;;;;5027362;28;20045;-68
2021/08/17 05:32:55;;;;;;;2.22;1.70;;;24.30;45.00;;;;;;5022687;28;20519;-68
2021/08/17 05:35:21;;;;;;;1.65;1.35;;;24.30;46.00;;;;;;5020561;28;20033;-68
2021/08/17 05:37:47;;;;;;;2.88;1.17;;;24.40;44.90;;;;;;5028786;28;20049;-68
2021/08/17 05:40:13;;;;;;;3.20;1.70;;;24.40;45.80;;;;;;5026541;28;20045;-68
2021/08/17 05:42:38;;;;;;;5.40;2.17;;;24.40;46.50;;;;;;5025004;28;20045;-68
2021/08/17 05:45:05;;;;;;;3.25;1.98;;;24.50;49.60;;;;;;5021540;28;20041;-68
2021/08/17 05:47:31;;;;;;;2.63;2.00;;;24.40;51.50;;;;;;5026859;28;20040;-68
2021/08/17 05:49:57;;;;;;;5.20;2.30;;;24.50;53.70;;;;;;5014458;28;20037;-68
2021/08/17 05:52:23;;;;;;;5.35;2.38;;;24.50;54.60;;;;;;5013009;28;20029;-68
2021/08/17 05:54:49;;;;;;;5.20;3.95;;;24.50;55.50;;;;;;5011601;28;20034;-68
2021/08/17 05:57:15;;;;;;;6.55;3.83;;;24.50;57.00;;;;;;5005038;28;20476;-68
2021/08/17 05:59:40;;;;;;;6.05;4.15;;;24.40;58.70;;;;;;5009375;28;20041;-68
2021/08/17 06:02:06;;;;;;;8.25;5.30;;;24.40;60.40;;;;;;5017564;28;20045;-68
2021/08/17 06:04:31;;;;;;;7.72;5.15;;;24.50;61.70;;;;;;5004590;28;20083;-68
2021/08/17 06:06:57;;;;;;;11.27;6.47;;;24.40;63.80;;;;;;5017892;28;20083;-68
2021/08/17 06:09:23;;;;;;;10.13;7.70;;;24.40;65.10;;;;;;5010025;28;20480;-68
2021/08/17 06:11:52;;;;;;;10.93;7.97;;;24.40;66.60;;;;;;5021993;28;20072;-62
2021/08/17 06:14:18;;;;;;;12.70;8.18;;;24.40;67.50;;;;;;5009697;28;20053;-69
2021/08/17 06:16:44;;;;;;;11.57;7.97;;;24.40;68.00;;;;;;5013453;28;20491;-68
2021/08/17 06:19:10;;;;;;;10.55;7.10;;;24.60;68.50;;;;;;5028848;28;20030;-68
2021/08/17 06:21:36;;;;;;;10.75;6.00;;;24.50;67.90;;;;;;5016911;28;20061;-68
2021/08/17 06:24:14;;;;;;;7.78;5.25;;;24.60;67.70;;;;;;5007512;28;20391;-68
2021/08/17 06:26:40;;;;;;;5.47;4.30;;;24.70;66.20;;;;;;5006613;28;20069;-69
2021/08/17 06:29:05;;;;;;;5.13;3.72;;;24.70;64.30;;;;;;5027012;28;20115;-68
2021/08/17 06:31:31;;;;;;;5.25;3.45;;;24.80;63.90;;;;;;5028676;28;20040;-68
2021/08/17 06:34:00;;;;;;;6.75;3.55;;;24.90;62.90;;;;;;5031951;28;20041;-68
2021/08/17 06:36:26;;;;;;;6.22;3.22;;;24.90;62.60;;;;;;5025207;28;20116;-68
2021/08/17 06:38:52;;;;;;;4.88;2.92;;;24.90;59.80;;;;;;5028921;28;20033;-68
2021/08/17 06:41:18;;;;;;;5.25;2.60;;;25.00;59.40;;;;;;5025891;28;20026;-69
2021/08/17 06:43:44;;;;;;;4.93;3.00;;;25.10;59.40;;;;;;5028181;28;20057;-68
2021/08/17 06:46:10;;;;;;;5.55;3.53;;;25.20;58.90;;;;;;5026090;28;20462;-69
2021/08/17 06:48:35;;;;;;;5.65;2.97;;;25.10;58.40;;;;;;5029653;28;20121;-68
2021/08/17 06:51:01;;;;;;;4.80;3.22;;;25.10;59.20;;;;;;5034267;28;20483;-68
2021/08/17 06:53:27;;;;;;;5.88;3.20;;;25.10;59.50;;;;;;5024779;28;20039;-68
2021/08/17 06:55:52;;;;;;;3.47;2.55;;;25.20;57.80;;;;;;5030427;28;20041;-68
2021/08/17 06:58:18;;;;;;;3.03;2.13;;;25.30;57.10;;;;;;5007518;28;20057;-69
2021/08/17 07:00:47;;;;;;;4.68;2.40;;;25.30;56.20;;;;;;5011398;28;20041;-68
2021/08/17 07:03:13;;;;;;;3.15;2.67;;;25.30;54.80;;;;;;5024626;28;20092;-68
2021/08/17 07:05:42;;;;;;;3.05;2.30;;;25.20;54.60;;;;;;5036024;28;20475;-68
2021/08/17 07:08:08;;;;;;;3.95;2.95;;;25.10;55.70;;;;;;5024717;28;20049;-68
2021/08/17 07:10:35;;;;;;;7.70;3.40;;;25.10;55.30;;;;;;5030456;28;20037;-69
2021/08/17 07:13:00;;;;;;;5.28;3.42;;;25.20;56.70;;;;;;5024589;28;20050;-69
2021/08/17 07:15:26;;;;;;;9.00;3.90;;;25.10;58.40;;;;;;5029554;28;20034;-69
2021/08/17 07:17:52;;;;;;;5.00;3.30;;;25.10;59.90;;;;;;5023605;28;20042;-66
2021/08/17 07:20:18;;;;;;;5.38;3.47;;;25.10;60.50;;;;;;5012402;28;20103;-68
2021/08/17 07:22:44;;;;;;;9.65;5.53;;;25.10;61.40;;;;;;5009767;28;20041;-68
2021/08/17 07:25:10;;;;;;;5.90;3.05;;;25.10;62.40;;;;;;5027994;28;20036;-68
2021/08/17 07:27:36;;;;;;;5.57;2.70;;;25.10;61.80;;;;;;5026633;28;20402;-68
2021/08/17 07:30:04;;;;;;;5.05;3.22;;;25.10;61.50;;;;;;5028140;28;20037;-68
2021/08/17 07:32:30;;;;;;;2.45;2.00;;;25.00;59.60;;;;;;5027439;28;20479;-67
2021/08/17 07:34:56;;;;;;;5.20;2.10;;;25.00;59.20;;;;;;5022904;28;20033;-68
2021/08/17 07:37:21;;;;;;;2.40;2.00;;;25.10;56.90;;;;;;5027775;28;20049;-67
2021/08/17 07:39:47;;;;;;;5.00;4.38;;;25.10;56.30;;;;;;5021809;28;20096;-68
2021/08/17 07:42:12;;;;;;;13.93;7.15;;;25.10;58.20;;;;;;5011494;28;20187;-68
2021/08/17 07:44:38;;;;;;;10.32;7.15;;;25.10;62.00;;;;;;5022936;28;20120;-67
2021/08/17 07:47:09;;;;;;;9.77;7.18;;;25.10;65.00;;;;;;5036640;28;20060;-68
2021/08/17 07:49:35;;;;;;;11.00;7.53;;;25.10;66.50;;;;;;5018765;28;20038;-68
2021/08/17 07:52:00;;;;;;;11.23;7.47;;;25.10;68.00;;;;;;5028926;28;20041;-68
2021/08/17 07:54:27;;;;;;;8.07;7.28;;;25.10;69.40;;;;;;5023655;28;20049;-68
2021/08/17 07:56:53;;;;;;;12.15;7.95;;;25.10;70.40;;;;;;5030179;28;20045;-68
2021/08/17 07:59:19;;;;;;;10.07;6.85;;;25.10;70.40;;;;;;5023424;28;20042;-62
2021/08/17 08:01:45;;;;;;;8.68;6.20;;;25.10;70.10;;;;;;5030266;28;20034;-68
2021/08/17 08:04:10;;;;;;;10.55;6.13;;;25.20;69.90;;;;;;5013768;28;20033;-69
2021/08/17 08:06:36;;;;;;;7.63;5.22;;;25.30;69.10;;;;;;5026443;28;20072;-69
2021/08/17 08:09:03;;;;;;;8.00;5.47;;;25.30;67.80;;;;;;5026536;28;20041;-69
2021/08/17 08:11:29;;;;;;;7.18;4.82;;;25.30;66.50;;;;;;5025095;28;20033;-68
2021/08/17 08:13:57;;;;;;;5.50;4.00;;;25.30;65.40;;;;;;5028061;28;20037;-68
2021/08/17 08:16:23;;;;;;;6.90;3.83;;;25.40;64.70;;;;;;5024907;28;20041;-68
2021/08/17 08:18:48;;;;;;;6.20;2.90;;;25.50;64.10;;;;;;5017379;28;20041;-68
2021/08/17 08:21:14;;;;;;;4.75;3.72;;;25.50;63.00;;;;;;5003222;28;20041;-68
2021/08/17 08:23:40;;;;;;;4.03;2.65;;;25.50;59.90;;;;;;5020348;28;20033;-68
2021/08/17 08:26:05;;;;;;;3.00;2.03;;;25.60;59.30;;;;;;5005230;28;20038;-69
2021/08/17 08:28:31;;;;;;;2.88;2.38;;;25.70;58.00;;;;;;5011124;28;20096;-68
2021/08/17 08:30:56;;;;;;;3.25;1.90;;;25.70;55.70;;;;;;5022148;28;20411;-68
2021/08/17 08:33:22;;;;;;;4.20;2.55;;;25.70;54.30;;;;;;5026399;28;20095;-68
2021/08/17 08:35:48;;;;;;;2.85;1.70;;;25.80;53.80;;;;;;5024319;28;20491;-69
2021/08/17 08:38:13;;;;;;;2.67;2.03;;;25.90;52.50;;;;;;5028961;28;20076;-69
2021/08/17 08:40:43;;;;;;;4.38;1.75;;;26.10;50.40;;;;;;5023802;28;20037;-70
2021/08/17 08:43:09;;;;;;;4.30;1.98;;;26.10;49.60;;;;;;5030112;28;20497;-69
2021/08/17 08:45:35;;;;;;;2.60;1.45;;;26.10;48.30;;;;;;5027217;28;20125;-69
2021/08/17 08:48:01;;;;;;;2.65;1.98;;;26.20;49.20;;;;;;5024150;28;20080;-69
2021/08/17 08:50:29;;;;;;;3.33;1.30;;;26.30;48.00;;;;;;5028990;28;20030;-69
2021/08/17 08:52:58;;;;;;;1.60;1.50;;;26.30;48.40;;;;;;5024002;28;20037;-68
2021/08/17 08:55:23;;;;;;;1.80;1.70;;;26.30;45.60;;;;;;5024600;28;20045;-68
2021/08/17 08:57:50;;;;;;;2.50;1.85;;;26.40;44.50;;;;;;5024287;28;20610;-65
2021/08/17 09:00:16;;;;;;;3.25;1.95;;;26.50;46.50;;;;;;5028422;28;20038;-69
2021/08/17 09:02:43;;;;;;;1.77;1.58;;;26.60;45.50;;;;;;5023755;28;20499;-69
2021/08/17 09:05:09;;;;;;;3.30;1.95;;;26.70;43.70;;;;;;5026454;28;20507;-69
2021/08/17 09:07:47;;;;;;;3.00;1.60;;;26.70;43.40;;;;;;5024542;28;20061;-69
2021/08/17 09:10:14;;;;;;;6.75;1.90;;;26.70;39.60;;;;;;5027985;28;20040;-69
2021/08/17 09:12:44;;;;;;;3.45;2.78;;;26.80;42.40;;;;;;5016394;28;20121;-69
2021/08/17 09:15:14;;;;;;;3.38;2.33;;;26.90;46.10;;;;;;5005631;28;20388;-70
2021/08/17 09:17:41;;;;;;;4.03;1.60;;;26.90;47.20;;;;;;5013092;28;20126;-69
2021/08/17 09:20:13;;;;;;;1.67;1.58;;;26.90;40.50;;;;;;5013154;28;20199;-69
2021/08/17 09:22:38;;;;;;;1.88;1.75;;;27.00;37.30;;;;;;5023462;28;20506;-69
2021/08/17 09:25:05;;;;;;;1.83;1.50;;;27.10;40.60;;;;;;5025636;28;20033;-69
2021/08/17 09:27:33;;;;;;;3.47;2.20;;;27.10;36.20;;;;;;5023957;28;20041;-70
2021/08/17 09:30:30;;;;;;;2.35;1.42;;;27.30;39.50;;;;;;5028043;28;20041;-69
2021/08/17 09:32:57;;;;;;;1.88;1.40;;;27.30;40.00;;;;;;4990821;28;20456;-69
2021/08/17 09:35:24;;;;;;;1.50;1.33;;;27.30;37.40;;;;;;5026815;28;20037;-69
2021/08/17 09:38:07;;;;;;;2.60;1.83;;;27.40;34.00;;;;;;5021413;28;20103;-68
2021/08/17 09:40:33;;;;;;;2.08;1.63;;;27.40;34.50;;;;;;5028122;28;20037;-69
2021/08/17 09:43:19;;;;;;;1.80;1.70;;;27.40;32.30;;;;;;5004688;28;20056;-70
2021/08/17 09:45:46;;;;;;;1.40;1.30;;;27.60;33.00;;;;;;5006621;28;20117;-69
2021/08/17 09:48:14;;;;;;;2.90;1.80;;;27.60;34.80;;;;;;5006398;28;20045;-70
2021/08/17 09:50:42;;;;;;;3.10;1.90;;;27.70;36.50;;;;;;5022938;28;20137;-69
2021/08/17 09:53:17;;;;;;;3.63;1.80;;;27.80;36.20;;;;;;5015063;28;20447;-69
2021/08/17 09:55:51;;;;;;;2.30;1.25;;;27.80;36.60;;;;;;5020794;28;20042;-70
2021/08/17 09:58:37;;;;;;;1.92;1.65;;;27.90;35.40;;;;;;5021178;28;20502;-70
2021/08/17 10:01:10;;;;;;;3.72;1.38;;;27.90;35.00;;;;;;5000772;28;20037;-69
2021/08/17 10:03:36;;;;;;;1.83;1.58;;;27.90;33.60;;;;;;5034358;28;20038;-69
2021/08/17 10:06:02;;;;;;;1.83;1.50;;;28.00;34.90;;;;;;5012188;28;20033;-69
2021/08/17 10:08:31;;;;;;;1.85;1.63;;;28.20;33.60;;;;;;5028351;28;20033;-69
2021/08/17 10:10:58;;;;;;;2.13;1.60;;;28.30;34.10;;;;;;5028857;28;20077;-68
2021/08/17 10:13:27;;;;;;;1.52;1.42;;;28.30;33.60;;;;;;5031439;28;20096;-68
2021/08/17 10:15:53;;;;;;;3.33;1.65;;;28.50;33.40;;;;;;5009933;28;20526;-68
2021/08/17 10:18:31;;;;;;;2.45;1.60;;;28.40;33.00;;;;;;5017888;28;20542;-62
2021/08/17 10:20:59;;;;;;;1.92;1.48;;;28.50;32.40;;;;;;5000500;28;20037;-68
2021/08/17 10:23:25;;;;;;;3.63;1.58;;;28.60;32.40;;;;;;5030878;28;20045;-68
2021/08/17 10:25:54;;;;;;;1.88;1.40;;;28.70;31.70;;;;;;5026697;28;20029;-68
2021/08/17 10:28:37;;;;;;;1.90;1.67;;;28.70;31.80;;;;;;5032580;28;20510;-67
2021/08/17 10:31:12;;;;;;;2.75;1.38;;;28.70;29.70;;;;;;5028387;28;20161;-69
2021/08/17 10:33:55;;;;;;;2.40;1.55;;;28.90;29.70;;;;;;5018972;28;20033;-68
2021/08/17 10:36:42;;;;;;;3.65;1.50;;;29.00;31.30;;;;;;5025070;28;20551;-68
2021/08/17 10:39:17;;;;;;;1.95;1.50;;;29.10;29.40;;;;;;5014276;28;20065;-68
2021/08/17 10:41:47;;;;;;;1.98;1.80;;;29.10;29.80;;;;;;5028028;28;20092;-69
2021/08/17 10:44:16;;;;;;;1.58;1.48;;;29.20;30.10;;;;;;5024423;28;20131;-69
2021/08/17 10:46:44;;;;;;;1.48;1.38;;;29.20;29.20;;;;;;5009606;28;20100;-69
2021/08/17 10:49:25;;;;;;;2.20;1.50;;;29.30;27.90;;;;;;5026243;28;20033;-69
2021/08/17 10:51:53;;;;;;;1.50;1.40;;;29.50;26.10;;;;;;5029798;28;20025;-68
2021/08/17 10:54:19;;;;;;;1.77;1.40;;;29.40;26.80;;;;;;5033926;28;20360;-69
2021/08/17 10:56:47;;;;;;;1.98;1.55;;;29.70;26.60;;;;;;5020555;28;20049;-69
2021/08/17 10:59:13;;;;;;;2.50;1.88;;;29.60;26.90;;;;;;5007498;28;20456;-69
2021/08/17 11:01:42;;;;;;;1.90;1.73;;;30.00;28.50;;;;;;5013691;28;20100;-69
2021/08/17 11:04:20;;;;;;;2.28;1.77;;;30.00;28.60;;;;;;5032082;28;20052;-69
2021/08/17 11:06:55;;;;;;;3.45;2.22;;;30.00;28.60;;;;;;5009191;28;20132;-69
2021/08/17 11:09:35;;;;;;;3.13;1.52;;;30.30;29.60;;;;;;5001026;28;20060;-68
2021/08/17 11:12:11;;;;;;;3.22;1.73;;;30.20;28.60;;;;;;5009465;28;20443;-69
2021/08/17 11:14:44;;;;;;;2.75;1.70;;;30.20;29.50;;;;;;5008865;28;20042;-69
2021/08/17 11:17:13;;;;;;;3.20;1.92;;;30.40;30.80;;;;;;5008520;28;20075;-69
2021/08/17 11:19:41;;;;;;;2.17;1.98;;;30.60;30.60;;;;;;5019744;28;20152;-70
2021/08/17 11:22:15;;;;;;;3.22;1.83;;;31.00;30.60;;;;;;5006595;28;20043;-70
2021/08/17 11:24:46;;;;;;;;;;;30.90;30.00;;;;;;5024414;28;20135;-69
2021/08/17 11:27:24;;;;;;;1.98;1.77;;;31.10;30.00;;;;;;5013424;28;20485;-70
2021/08/17 11:30:13;;;;;;;2.67;1.83;;;31.20;28.90;;;;;;5022439;28;20041;-60
2021/08/17 11:32:44;;;;;;;2.03;1.70;;;31.20;27.80;;;;;;5005268;28;20438;-69
2021/08/17 11:35:13;;;;;;;1.73;1.60;;;31.20;27.30;;;;;;5027901;28;20052;-69
2021/08/17 11:37:46;;;;;;;2.17;1.45;;;31.70;26.00;;;;;;5025375;28;20184;-71
2021/08/17 11:40:15;;;;;;;1.63;1.30;;;32.40;23.00;;;;;;5017169;28;20452;-70
2021/08/17 11:42:43;;;;;;;1.60;1.50;;;33.20;23.80;;;;;;5014279;28;20041;-72
2021/08/17 11:45:13;;;;;;;1.58;1.48;;;33.70;22.00;;;;;;5017611;28;20033;-70
2021/08/17 11:47:41;;;;;;;1.92;1.40;;;34.30;21.60;;;;;;5024809;28;22198;-70
2021/08/17 11:50:09;;;;;;;2.70;2.03;;;34.50;44.50;;;;;;5021751;28;20503;-71
2021/08/17 11:52:40;;;;;;;3.80;2.10;;;34.80;22.00;;;;;;5028724;28;20395;-71
2021/08/17 11:55:08;;;;;;;2.20;2.00;;;35.00;25.00;;;;;;5024801;28;20172;-70
2021/08/17 11:57:41;;;;;;;1.95;1.85;;;36.50;20.70;;;;;;5022205;28;20033;-69
2021/08/17 12:00:13;;;;;;;4.13;1.92;;;37.00;19.70;;;;;;5013267;28;20104;-70
2021/08/17 12:02:49;;;;;;;1.95;1.85;;;37.70;21.30;;;;;;5009356;28;20584;-69
2021/08/17 12:05:17;;;;;;;2.20;2.00;;;38.40;18.30;;;;;;5020806;28;20030;-70
2021/08/17 12:07:47;;;;;;;2.42;2.22;;;38.00;17.90;;;;;;5018695;28;20048;-70
2021/08/17 12:10:15;;;;;;;2.42;2.00;;;38.40;29.90;;;;;;5007720;28;20033;-70
2021/08/17 12:13:00;;;;;;;3.67;2.33;;;;;;;;;;5015629;28;20038;-71
2021/08/17 12:15:40;;;;;;;2.35;2.25;;;41.20;19.80;;;;;;4985238;28;20119;-69
2021/08/17 12:18:25;;;;;;;2.63;2.40;;;42.50;15.30;;;;;;5022695;28;20046;-70
2021/08/17 12:20:57;;;;;;;2.47;2.28;;;44.00;13.90;;;;;;5006961;28;20172;-69
2021/08/17 12:23:25;;;;;;;2.25;2.08;;;43.80;12.40;;;;;;5029181;28;20047;-68
2021/08/17 12:26:08;;;;;;;4.70;2.60;;;43.20;12.10;;;;;;5026025;28;20463;-68
2021/08/17 12:28:34;;;;;;;3.28;2.80;;;41.90;14.20;;;;;;5027933;28;20131;-70
2021/08/17 12:31:15;;;;;;;2.97;2.78;;;41.90;14.50;;;;;;5025197;28;20065;-70
2021/08/17 12:33:54;;;;;;;2.90;2.70;;;42.20;13.50;;;;;;5026530;28;20127;-70
2021/08/17 12:36:40;;;;;;;3.25;2.45;;;42.80;14.20;;;;;;5017582;28;20543;-69
2021/08/17 12:39:36;;;;;;;2.85;2.65;;;42.60;13.80;;;;;;4989362;28;20050;-70
2021/08/17 12:42:10;;;;;;;2.88;2.67;;;41.80;14.50;;;;;;4994557;28;20042;-69
2021/08/17 12:44:38;;;;;;;2.65;2.45;;;40.90;13.60;;;;;;5023202;28;20038;-70
2021/08/17 12:47:19;;;;;;;2.80;2.70;;;40.00;13.60;;;;;;5006828;28;20045;-69
2021/08/17 12:49:51;;;;;;;2.38;2.17;;;40.80;13.50;;;;;;5007261;28;20030;-69
2021/08/17 12:52:28;;;;;;;2.60;2.50;;;42.40;12.10;;;;;;5011307;28;20069;-70